Time;durP1;ratioP1;P1;durP2;ratioP2;P2;SDS_P1;SDS_P2;PMS_P1;PMS_P2;Temp;Humidity;BMP_temperature;BMP_pressure;BME280_temperature;BME280_humidity;BME280_pressure;Samples;Min_cycle;Max_cycle;Signal;HPM_P1;HPM_P2
2024/01/09 00:00:52;;;;;;;8.00;4.73;;;-4.70;67.40;;;;;;4852348;29;20707;-72
2024/01/09 00:03:18;;;;;;;9.37;4.83;;;-4.60;67.50;;;;;;4859401;29;20228;-70
2024/01/09 00:05:43;;;;;;;12.20;6.17;;;-4.60;67.50;;;;;;4866071;29;20234;-70
2024/01/09 00:08:09;;;;;;;11.50;4.50;;;-4.50;67.10;;;;;;4855982;29;20192;-73
2024/01/09 00:10:34;;;;;;;10.40;5.80;;;-4.60;67.10;;;;;;4863244;29;20246;-70
2024/01/09 00:13:00;;;;;;;12.20;4.97;;;-4.70;67.50;;;;;;4863762;29;20567;-72
2024/01/09 00:15:26;;;;;;;9.20;4.03;;;-4.60;67.50;;;;;;4835623;29;20240;-70
2024/01/09 00:17:51;;;;;;;9.93;4.13;;;-4.60;67.20;;;;;;4859182;29;20255;-70
2024/01/09 00:20:17;;;;;;;8.57;4.40;;;-4.60;66.80;;;;;;4857005;29;20197;-71
2024/01/09 00:22:43;;;;;;;7.20;4.20;;;-4.60;66.50;;;;;;4852332;29;20235;-71
2024/01/09 00:25:09;;;;;;;7.13;4.20;;;-4.70;66.50;;;;;;4864511;29;20444;-71
2024/01/09 00:27:35;;;;;;;8.47;4.40;;;-4.60;66.80;;;;;;4856538;29;20835;-69
2024/01/09 00:30:02;;;;;;;7.20;3.83;;;-4.70;66.40;;;;;;4846458;29;20209;-69
2024/01/09 00:32:28;;;;;;;8.97;4.50;;;-4.70;66.20;;;;;;4856904;29;20464;-70
2024/01/09 00:34:53;;;;;;;10.83;5.20;;;-4.70;66.30;;;;;;4861663;29;20874;-69
2024/01/09 00:37:19;;;;;;;6.87;3.50;;;-4.60;66.50;;;;;;4864383;29;20429;-70
2024/01/09 00:39:44;;;;;;;6.00;4.30;;;-4.70;66.70;;;;;;4846670;29;20265;-68
2024/01/09 00:42:10;;;;;;;8.07;4.77;;;-4.70;67.10;;;;;;4858014;29;20201;-68
2024/01/09 00:44:36;;;;;;;7.73;4.60;;;-4.80;67.30;;;;;;4852055;29;20217;-70
2024/01/09 00:47:02;;;;;;;6.73;3.47;;;-4.70;66.90;;;;;;4876065;29;20221;-69
2024/01/09 00:49:28;;;;;;;7.90;4.17;;;-4.60;66.60;;;;;;4871993;29;20193;-69
2024/01/09 00:51:53;;;;;;;10.87;5.30;;;-4.50;65.70;;;;;;4838220;29;20434;-70
2024/01/09 00:54:19;;;;;;;8.57;3.77;;;-4.40;65.20;;;;;;4852322;29;20211;-70
2024/01/09 00:56:45;;;;;;;6.40;3.90;;;-4.50;65.10;;;;;;4848966;29;20251;-70
2024/01/09 00:59:11;;;;;;;8.17;4.03;;;-4.40;64.70;;;;;;4851760;29;20204;-72
2024/01/09 01:01:36;;;;;;;8.60;4.93;;;-4.50;64.70;;;;;;4863105;29;20236;-70
2024/01/09 01:04:02;;;;;;;8.10;4.43;;;-4.50;64.90;;;;;;4865970;29;20239;-69
2024/01/09 01:06:28;;;;;;;9.20;5.17;;;-4.60;65.20;;;;;;4861969;29;20621;-71
2024/01/09 01:08:53;;;;;;;6.43;4.20;;;-4.60;65.50;;;;;;4859589;29;20211;-69
2024/01/09 01:11:19;;;;;;;6.20;3.97;;;-4.60;65.40;;;;;;4857479;29;20196;-69
2024/01/09 01:13:44;;;;;;;8.27;4.80;;;-4.60;65.50;;;;;;4853184;29;20184;-71
2024/01/09 01:16:10;;;;;;;10.13;4.57;;;-4.50;65.50;;;;;;4851648;29;20641;-71
2024/01/09 01:18:36;;;;;;;9.90;5.03;;;-4.50;65.80;;;;;;4856821;29;20201;-70
2024/01/09 01:21:01;;;;;;;6.70;4.60;;;-4.50;65.60;;;;;;4856316;29;20213;-70
2024/01/09 01:23:27;;;;;;;10.50;4.73;;;-4.60;65.60;;;;;;4857402;29;20299;-70
2024/01/09 01:25:53;;;;;;;5.97;4.10;;;-4.70;66.10;;;;;;4860675;29;20287;-70
2024/01/09 01:28:18;;;;;;;7.80;4.50;;;-4.70;66.20;;;;;;4851509;29;20478;-70
2024/01/09 01:30:44;;;;;;;9.10;4.63;;;-4.70;66.30;;;;;;4856875;29;20220;-70
2024/01/09 01:33:10;;;;;;;11.00;5.50;;;-4.60;66.00;;;;;;4863621;29;20200;-69
2024/01/09 01:35:35;;;;;;;8.93;4.60;;;-4.60;65.90;;;;;;4852495;29;20436;-69
2024/01/09 01:38:01;;;;;;;8.73;4.57;;;-4.70;66.40;;;;;;4854749;29;20199;-69
2024/01/09 01:40:26;;;;;;;5.77;3.93;;;-4.80;66.50;;;;;;4863477;29;20485;-69
2024/01/09 01:42:56;;;;;;;9.63;5.27;;;-4.90;66.90;;;;;;4862372;29;20188;-69
2024/01/09 01:45:22;;;;;;;5.83;3.60;;;-5.00;67.50;;;;;;4850520;29;20321;-69
2024/01/09 01:47:49;;;;;;;9.60;4.50;;;-5.00;67.60;;;;;;4849640;29;20425;-67
2024/01/09 01:50:15;;;;;;;7.60;3.97;;;-5.00;68.00;;;;;;4851308;29;20418;-70
2024/01/09 01:52:43;;;;;;;11.10;4.80;;;-5.00;68.10;;;;;;4853945;29;20425;-69
2024/01/09 01:55:10;;;;;;;13.07;4.90;;;-5.00;68.50;;;;;;4854247;29;20449;-68
2024/01/09 01:57:38;;;;;;;8.80;4.90;;;-5.10;68.50;;;;;;4837840;29;20437;-69
2024/01/09 02:00:04;;;;;;;8.13;4.30;;;-5.00;68.70;;;;;;4857672;29;20425;-69
2024/01/09 02:02:37;;;;;;;8.40;4.27;;;-5.00;68.50;;;;;;4853355;29;20449;-69
2024/01/09 02:05:03;;;;;;;12.10;3.87;;;-4.90;68.50;;;;;;4850161;29;20500;-69
2024/01/09 02:07:33;;;;;;;7.03;4.60;;;-4.90;68.50;;;;;;4863046;29;20925;-69
2024/01/09 02:09:58;;;;;;;9.03;4.37;;;-5.00;68.40;;;;;;4863421;29;20417;-69
2024/01/09 02:12:24;;;;;;;8.57;4.93;;;-5.00;68.50;;;;;;4848670;29;20529;-69
2024/01/09 02:14:50;;;;;;;10.47;4.77;;;-5.00;68.50;;;;;;4850370;29;20195;-70
2024/01/09 02:17:15;;;;;;;6.37;4.03;;;-5.10;68.80;;;;;;4855440;29;20195;-68
2024/01/09 02:19:41;;;;;;;7.80;4.70;;;-5.10;68.70;;;;;;4853507;29;20234;-69
2024/01/09 02:22:06;;;;;;;10.07;4.47;;;-5.00;68.70;;;;;;4853419;29;20596;-68
2024/01/09 02:24:32;;;;;;;8.30;4.50;;;-5.00;68.70;;;;;;4855820;29;20479;-69
2024/01/09 02:27:04;;;;;;;8.73;4.90;;;-5.00;68.70;;;;;;4853970;29;20718;-70
2024/01/09 02:29:32;;;;;;;7.07;4.73;;;-4.90;68.80;;;;;;4848407;29;20203;-68
2024/01/09 02:31:58;;;;;;;8.50;4.53;;;-4.90;68.50;;;;;;4853018;29;20421;-69
2024/01/09 02:34:24;;;;;;;5.43;3.83;;;-4.90;68.90;;;;;;4848843;29;20452;-70
2024/01/09 02:36:50;;;;;;;7.37;4.70;;;-5.00;69.00;;;;;;4844218;29;20446;-68
2024/01/09 02:39:16;;;;;;;8.30;5.47;;;-4.90;69.40;;;;;;4862325;29;20894;-68
2024/01/09 02:41:41;;;;;;;10.27;4.97;;;-5.60;85.10;;;;;;4862422;29;20241;-68
2024/01/09 02:44:07;;;;;;;8.20;4.67;;;-4.90;83.30;;;;;;4856415;29;21019;-68
2024/01/09 02:46:32;;;;;;;7.37;4.73;;;-5.00;85.40;;;;;;4847488;29;20559;-68
2024/01/09 02:48:58;;;;;;;8.27;4.97;;;-4.90;87.10;;;;;;4862178;29;20345;-68
2024/01/09 02:51:24;;;;;;;7.73;4.50;;;-5.00;88.00;;;;;;4848453;29;20201;-69
2024/01/09 02:53:51;;;;;;;9.00;5.00;;;-5.00;87.70;;;;;;4861898;29;20200;-68
2024/01/09 02:56:17;;;;;;;8.37;5.30;;;-5.00;89.00;;;;;;4859223;29;20224;-67
2024/01/09 02:58:42;;;;;;;8.00;4.53;;;-5.10;89.10;;;;;;4853576;29;20572;-68
2024/01/09 03:01:08;;;;;;;9.60;4.90;;;-5.00;92.40;;;;;;4850301;29;20201;-69
2024/01/09 03:03:34;;;;;;;8.23;5.10;;;-4.90;92.20;;;;;;4857254;29;20595;-68
2024/01/09 03:05:59;;;;;;;10.27;4.70;;;-5.00;94.50;;;;;;4856250;29;20216;-68
2024/01/09 03:08:25;;;;;;;7.50;4.63;;;-5.10;96.00;;;;;;4848496;29;20625;-68
2024/01/09 03:10:50;;;;;;;7.67;4.20;;;-5.10;98.00;;;;;;4850990;29;20219;-68
2024/01/09 03:13:16;;;;;;;7.57;4.60;;;-5.10;99.90;;;;;;4858219;29;20211;-69
2024/01/09 03:15:43;;;;;;;10.23;5.10;;;;;;;;;;4859990;29;20546;-69
2024/01/09 03:18:08;;;;;;;8.37;4.60;;;-4.50;99.90;;;;;;4845325;29;20196;-68
2024/01/09 03:20:34;;;;;;;11.70;4.83;;;-4.70;70.90;;;;;;4853959;29;20486;-68
2024/01/09 03:22:59;;;;;;;9.80;5.40;;;-4.90;70.50;;;;;;4863953;29;20204;-69
2024/01/09 03:25:26;;;;;;;7.83;4.13;;;-4.90;71.00;;;;;;4864518;29;20216;-68
2024/01/09 03:27:55;;;;;;;10.20;5.00;;;-5.10;71.50;;;;;;4849453;29;20253;-69
2024/01/09 03:30:21;;;;;;;8.67;4.03;;;-5.20;72.10;;;;;;4853081;29;20444;-69
2024/01/09 03:32:47;;;;;;;9.47;4.80;;;-5.30;72.60;;;;;;4862837;29;20424;-68
2024/01/09 03:35:15;;;;;;;7.73;4.83;;;;;;;;;;4867513;29;20448;-68
2024/01/09 03:37:40;;;;;;;10.03;4.53;;;-5.20;72.20;;;;;;4868637;29;20209;-68
2024/01/09 03:40:07;;;;;;;7.83;5.43;;;-5.30;73.10;;;;;;4851925;29;20731;-68
2024/01/09 03:42:32;;;;;;;11.87;5.27;;;-5.30;73.50;;;;;;4859719;29;20215;-69
2024/01/09 03:44:58;;;;;;;9.70;4.70;;;-5.20;74.00;;;;;;4852903;29;20469;-69
2024/01/09 03:47:23;;;;;;;6.87;4.80;;;-5.20;73.40;;;;;;4858118;29;20197;-68
2024/01/09 03:49:49;;;;;;;10.43;4.97;;;-5.20;73.40;;;;;;4865798;29;20200;-68
2024/01/09 03:52:15;;;;;;;8.03;4.27;;;-5.20;73.60;;;;;;4861972;29;20219;-69
2024/01/09 03:54:40;;;;;;;9.60;4.27;;;-5.10;73.50;;;;;;4862662;29;20235;-69
2024/01/09 03:57:06;;;;;;;11.67;4.73;;;-5.30;73.30;;;;;;4868644;29;20235;-68
2024/01/09 03:59:31;;;;;;;10.60;4.80;;;-5.20;73.50;;;;;;4850405;29;20192;-69
2024/01/09 04:01:57;;;;;;;8.67;5.00;;;-5.30;73.80;;;;;;4867527;29;20236;-68
2024/01/09 04:04:23;;;;;;;8.77;4.67;;;-5.40;74.30;;;;;;4852174;29;20650;-69
2024/01/09 04:06:49;;;;;;;9.43;5.60;;;-5.50;74.90;;;;;;4858285;29;20212;-68
2024/01/09 04:09:15;;;;;;;8.57;5.00;;;-5.60;75.40;;;;;;4865434;29;20452;-69
2024/01/09 04:11:44;;;;;;;8.40;4.20;;;-5.70;75.80;;;;;;4857850;29;20482;-68
2024/01/09 04:14:10;;;;;;;8.10;4.23;;;-5.70;76.10;;;;;;4849349;29;20197;-69
2024/01/09 04:16:36;;;;;;;12.53;5.43;;;-5.70;76.50;;;;;;4849423;29;20445;-69
2024/01/09 04:19:01;;;;;;;10.10;5.13;;;-5.80;92.40;;;;;;4857374;29;20209;-68
2024/01/09 04:21:27;;;;;;;5.37;3.90;;;-5.80;76.30;;;;;;4861005;29;20251;-69
2024/01/09 04:23:53;;;;;;;9.87;4.90;;;-5.80;77.20;;;;;;4861492;29;20304;-69
2024/01/09 04:26:18;;;;;;;9.40;5.03;;;-5.80;77.60;;;;;;4861438;29;20300;-68
2024/01/09 04:28:44;;;;;;;7.50;5.10;;;-5.90;77.70;;;;;;4864069;29;20197;-70
2024/01/09 04:31:09;;;;;;;10.00;5.00;;;-5.80;77.40;;;;;;4860982;29;20609;-70
2024/01/09 04:33:35;;;;;;;6.27;3.83;;;-5.80;78.00;;;;;;4860517;29;20229;-69
2024/01/09 04:36:01;;;;;;;7.83;4.70;;;-5.80;77.80;;;;;;4853172;29;20295;-68
2024/01/09 04:38:26;;;;;;;5.70;4.10;;;-5.80;78.20;;;;;;4856426;29;20652;-68
2024/01/09 04:40:52;;;;;;;5.87;3.87;;;-5.80;77.90;;;;;;4864558;29;20220;-70
2024/01/09 04:43:18;;;;;;;7.50;4.70;;;-5.80;77.70;;;;;;4851764;29;20235;-69
2024/01/09 04:45:43;;;;;;;8.43;4.57;;;-5.90;78.50;;;;;;4858292;29;20215;-69
2024/01/09 04:48:09;;;;;;;7.97;4.27;;;-5.90;78.60;;;;;;4858774;29;20192;-69
2024/01/09 04:50:35;;;;;;;7.53;5.40;;;-6.00;78.70;;;;;;4848191;29;20310;-69
2024/01/09 04:53:00;;;;;;;7.30;4.37;;;-6.00;78.80;;;;;;4858188;29;20181;-69
2024/01/09 04:55:26;;;;;;;7.87;4.70;;;-6.00;78.90;;;;;;4862546;29;20216;-68
2024/01/09 04:57:52;;;;;;;9.30;6.47;;;-6.10;78.80;;;;;;4856616;29;20353;-69
2024/01/09 05:00:19;;;;;;;11.10;6.20;;;-6.10;78.90;;;;;;4848914;29;20248;-69
2024/01/09 05:02:45;;;;;;;6.27;4.00;;;-6.00;79.10;;;;;;4860825;29;20301;-69
2024/01/09 05:05:11;;;;;;;5.90;4.53;;;-6.00;79.10;;;;;;4853243;29;20474;-68
2024/01/09 05:07:36;;;;;;;8.20;4.50;;;-6.10;79.20;;;;;;4859494;29;20422;-69
2024/01/09 05:10:04;;;;;;;5.43;4.30;;;-6.10;79.40;;;;;;4843314;29;20433;-70
2024/01/09 05:12:29;;;;;;;8.23;4.10;;;-6.10;79.60;;;;;;4855111;29;20219;-69
2024/01/09 05:14:55;;;;;;;11.97;5.50;;;-6.10;79.90;;;;;;4837203;29;20429;-70
2024/01/09 05:17:21;;;;;;;9.03;4.77;;;-6.20;80.10;;;;;;4856526;29;20264;-69
2024/01/09 05:19:46;;;;;;;7.77;4.97;;;-6.20;80.40;;;;;;4847344;29;20214;-69
2024/01/09 05:22:13;;;;;;;7.17;4.40;;;-6.10;80.60;;;;;;4857087;29;20235;-69
2024/01/09 05:24:38;;;;;;;8.13;4.70;;;-6.10;80.50;;;;;;4848729;29;20844;-69
2024/01/09 05:27:04;;;;;;;7.30;4.47;;;-6.10;80.60;;;;;;4854865;29;20478;-68
2024/01/09 05:29:30;;;;;;;8.03;4.63;;;-6.10;80.60;;;;;;4858541;29;20228;-70
2024/01/09 05:31:55;;;;;;;9.33;4.97;;;-6.20;80.30;;;;;;4856779;29;20196;-70
2024/01/09 05:34:21;;;;;;;10.07;5.50;;;-6.20;80.40;;;;;;4853574;29;20200;-69
2024/01/09 05:36:48;;;;;;;10.43;4.70;;;-6.10;80.50;;;;;;4854086;29;20485;-69
2024/01/09 05:39:14;;;;;;;9.30;5.33;;;-6.10;80.50;;;;;;4859421;29;20614;-69
2024/01/09 05:41:40;;;;;;;10.37;5.70;;;-6.10;80.60;;;;;;4863152;29;20524;-69
2024/01/09 05:44:05;;;;;;;9.70;4.27;;;-6.10;80.60;;;;;;4854531;29;20220;-69
2024/01/09 05:46:31;;;;;;;9.90;4.60;;;-6.10;80.90;;;;;;4863056;29;20266;-69
2024/01/09 05:48:57;;;;;;;8.90;4.90;;;-6.10;81.20;;;;;;4862750;29;20216;-68
2024/01/09 05:51:22;;;;;;;7.80;4.60;;;-6.10;81.50;;;;;;4861444;29;20256;-69
2024/01/09 05:53:48;;;;;;;8.10;4.57;;;-6.10;80.90;;;;;;4851601;29;20234;-69
2024/01/09 05:56:13;;;;;;;8.20;4.83;;;-6.10;80.90;;;;;;4850680;29;20696;-70
2024/01/09 05:58:39;;;;;;;10.13;4.93;;;-6.10;80.70;;;;;;4854604;29;20463;-70
2024/01/09 06:01:05;;;;;;;9.60;4.10;;;-6.20;80.80;;;;;;4861499;29;20577;-72
2024/01/09 06:03:30;;;;;;;8.80;5.13;;;-6.20;81.10;;;;;;4854483;29;20236;-69
2024/01/09 06:05:56;;;;;;;9.43;4.07;;;-6.30;81.20;;;;;;4872609;29;20298;-70
2024/01/09 06:08:21;;;;;;;10.17;5.10;;;-6.20;81.40;;;;;;4867688;29;20198;-70
2024/01/09 06:10:47;;;;;;;9.40;4.50;;;-6.30;81.60;;;;;;4867557;29;20259;-70
2024/01/09 06:13:13;;;;;;;10.80;5.13;;;-6.20;81.90;;;;;;4858693;29;20201;-70
2024/01/09 06:15:38;;;;;;;7.90;4.53;;;-6.20;82.00;;;;;;4847368;29;20260;-71
2024/01/09 06:18:04;;;;;;;7.53;4.10;;;-6.30;82.20;;;;;;4861134;29;20210;-71
2024/01/09 06:20:30;;;;;;;10.27;5.30;;;-6.20;82.40;;;;;;4865955;29;20206;-72
2024/01/09 06:22:56;;;;;;;9.20;4.53;;;-6.20;82.30;;;;;;4867421;29;20433;-72
2024/01/09 06:25:21;;;;;;;10.10;5.30;;;-6.20;81.80;;;;;;4858923;29;20272;-75
2024/01/09 06:27:47;;;;;;;8.73;5.13;;;-6.20;81.40;;;;;;4843923;29;20688;-73
2024/01/09 06:30:13;;;;;;;7.90;4.53;;;-6.20;81.40;;;;;;4854725;29;20288;-74
2024/01/09 06:32:39;;;;;;;11.60;5.10;;;-6.30;81.70;;;;;;4857364;29;20283;-71
2024/01/09 06:35:05;;;;;;;9.30;5.50;;;-6.30;81.70;;;;;;4862742;29;20563;-72
2024/01/09 06:37:30;;;;;;;8.00;4.63;;;-6.20;82.00;;;;;;4849572;29;20215;-73
2024/01/09 06:39:56;;;;;;;7.83;4.40;;;-6.20;81.90;;;;;;4856026;29;20434;-70
2024/01/09 06:42:22;;;;;;;9.50;4.43;;;-6.20;81.80;;;;;;4850557;29;20193;-72
2024/01/09 06:44:48;;;;;;;8.77;4.80;;;-6.20;82.00;;;;;;4850521;29;20322;-74
2024/01/09 06:47:13;;;;;;;10.93;6.60;;;-6.20;82.50;;;;;;4850876;29;20238;-73
2024/01/09 06:49:39;;;;;;;7.53;4.90;;;-6.20;83.40;;;;;;4868321;29;20398;-73
2024/01/09 06:52:05;;;;;;;9.30;5.83;;;-6.20;83.70;;;;;;4832215;29;20201;-73
2024/01/09 06:54:30;;;;;;;10.80;5.00;;;-6.20;83.60;;;;;;4840851;29;20585;-73
2024/01/09 06:56:56;;;;;;;13.00;5.90;;;-6.20;83.80;;;;;;4855527;29;20304;-75
2024/01/09 06:59:21;;;;;;;8.60;5.50;;;-6.20;84.10;;;;;;4859722;29;20185;-73
2024/01/09 07:01:47;;;;;;;12.00;5.07;;;-6.20;84.60;;;;;;4849352;29;20236;-71
2024/01/09 07:04:14;;;;;;;10.40;4.77;;;-6.20;85.10;;;;;;4871894;29;20699;-72
2024/01/09 07:06:39;;;;;;;10.33;5.37;;;-6.20;85.40;;;;;;4865620;29;20297;-71
2024/01/09 07:09:05;;;;;;;8.83;5.10;;;-6.30;86.10;;;;;;4865188;29;20710;-72
2024/01/09 07:11:31;;;;;;;9.60;5.37;;;-6.30;86.30;;;;;;4866611;29;20187;-73
2024/01/09 07:13:56;;;;;;;9.93;5.60;;;-6.30;86.60;;;;;;4866921;29;20200;-72
2024/01/09 07:16:22;;;;;;;10.50;5.17;;;-6.40;87.00;;;;;;4862708;29;20224;-71
2024/01/09 07:18:48;;;;;;;10.43;4.90;;;-6.40;87.50;;;;;;4861209;29;20204;-71
2024/01/09 07:21:13;;;;;;;10.20;5.00;;;-6.40;87.70;;;;;;4848744;29;20208;-71
2024/01/09 07:23:39;;;;;;;7.07;4.53;;;-6.40;87.90;;;;;;4861924;29;20502;-72
2024/01/09 07:26:04;;;;;;;7.47;5.20;;;-6.50;88.60;;;;;;4860513;29;20621;-72
2024/01/09 07:28:30;;;;;;;11.53;5.60;;;-6.40;89.10;;;;;;4865698;29;20243;-70
2024/01/09 07:30:56;;;;;;;9.93;5.20;;;-6.40;89.60;;;;;;4855643;29;20266;-71
2024/01/09 07:33:22;;;;;;;11.10;5.20;;;-6.40;90.10;;;;;;4860578;29;20582;-71
2024/01/09 07:35:48;;;;;;;11.70;4.47;;;-6.40;90.30;;;;;;4860227;29;20445;-72
2024/01/09 07:38:13;;;;;;;11.27;5.87;;;-6.50;90.50;;;;;;4853449;29;20778;-71
2024/01/09 07:40:39;;;;;;;10.67;5.17;;;-6.50;90.70;;;;;;4852711;29;20203;-75
2024/01/09 07:43:05;;;;;;;7.50;4.43;;;-6.50;90.90;;;;;;4866996;29;20203;-71
2024/01/09 07:45:30;;;;;;;10.00;5.00;;;-6.50;90.90;;;;;;4852913;29;20277;-73
2024/01/09 07:47:57;;;;;;;9.40;5.30;;;-6.40;91.10;;;;;;4865134;29;20436;-74
2024/01/09 07:50:23;;;;;;;11.20;5.93;;;-6.50;91.20;;;;;;4832908;29;20598;-72
2024/01/09 07:52:50;;;;;;;9.13;4.70;;;-6.40;91.10;;;;;;4855053;29;20448;-73
2024/01/09 07:55:16;;;;;;;10.52;5.63;;;-6.30;91.00;;;;;;4863720;29;20739;-74
2024/01/09 07:57:42;;;;;;;9.83;5.73;;;-6.30;91.00;;;;;;4861203;29;20224;-73
2024/01/09 08:00:08;;;;;;;8.40;4.67;;;-6.30;90.90;;;;;;4863987;29;20187;-71
2024/01/09 08:02:40;;;;;;;10.37;5.63;;;-6.40;90.80;;;;;;4864980;29;20255;-72
2024/01/09 08:05:06;;;;;;;15.20;6.07;;;-6.10;90.70;;;;;;4855166;29;20470;-72
2024/01/09 08:07:31;;;;;;;12.53;6.37;;;-6.10;90.50;;;;;;4859323;29;20241;-72
2024/01/09 08:09:57;;;;;;;11.10;6.40;;;-6.20;90.10;;;;;;4863466;29;20197;-73
2024/01/09 08:12:22;;;;;;;13.73;6.27;;;-6.10;89.20;;;;;;4862289;29;20243;-74
2024/01/09 08:14:49;;;;;;;9.27;5.10;;;-6.10;88.90;;;;;;4849249;29;20642;-72
2024/01/09 08:17:15;;;;;;;7.70;4.80;;;-6.10;88.90;;;;;;4876965;29;20188;-71
2024/01/09 08:19:40;;;;;;;9.47;4.87;;;-6.00;88.90;;;;;;4868289;29;20452;-72
2024/01/09 08:22:06;;;;;;;13.27;5.18;;;-6.00;88.80;;;;;;4860518;29;20454;-72
2024/01/09 08:24:32;;;;;;;10.80;5.67;;;-5.90;89.00;;;;;;4856479;29;20231;-74
2024/01/09 08:26:59;;;;;;;11.33;5.47;;;-6.00;88.90;;;;;;4871735;29;20297;-73
2024/01/09 08:29:27;;;;;;;9.60;5.87;;;-5.90;88.80;;;;;;4869084;29;20509;-72
2024/01/09 08:31:53;;;;;;;10.20;5.40;;;-5.90;88.60;;;;;;4861918;29;20731;-74
2024/01/09 08:34:19;;;;;;;9.53;5.87;;;-5.90;88.40;;;;;;4849931;29;20433;-75
2024/01/09 08:36:46;;;;;;;8.73;4.47;;;-5.90;88.30;;;;;;4859172;29;20547;-72
2024/01/09 08:39:15;;;;;;;9.20;4.80;;;-5.70;88.10;;;;;;4871933;29;20177;-74
2024/01/09 08:41:41;;;;;;;9.00;4.80;;;-5.80;87.70;;;;;;4844970;29;20441;-73
2024/01/09 08:44:08;;;;;;;9.57;4.67;;;-5.80;87.90;;;;;;4867523;29;20456;-73
2024/01/09 08:46:34;;;;;;;8.30;5.43;;;-5.60;88.70;;;;;;4847817;29;20468;-75
2024/01/09 08:49:00;;;;;;;11.10;6.07;;;-5.30;88.00;;;;;;4870319;29;20422;-73
2024/01/09 09:06:44;;;;;;;8.97;4.90;;;-5.20;84.70;;;;;;5017398;23;20243;-79
2024/01/09 09:09:10;;;;;;;13.27;5.77;;;-5.10;84.40;;;;;;4936758;29;20438;-79
2024/01/09 09:11:49;;;;;;;10.13;5.47;;;-5.10;83.80;;;;;;4927112;29;20406;-80
2024/01/09 09:14:39;;;;;;;10.70;5.50;;;-5.00;83.20;;;;;;4946317;29;20437;-80
2024/01/09 09:17:05;;;;;;;10.63;5.80;;;-5.00;82.80;;;;;;4931835;29;20435;-79
2024/01/09 09:19:32;;;;;;;9.67;5.63;;;-4.90;82.70;;;;;;4966170;29;20485;-79
2024/01/09 09:22:01;;;;;;;9.57;5.57;;;-4.80;82.10;;;;;;4943841;29;20875;-76
2024/01/09 09:24:27;;;;;;;8.10;5.00;;;-4.80;81.30;;;;;;4929599;29;20465;-77
2024/01/09 09:26:53;;;;;;;12.13;5.60;;;-4.80;81.40;;;;;;4951201;29;20449;-78
2024/01/09 09:29:19;;;;;;;15.00;6.80;;;-4.70;81.80;;;;;;4945919;29;20405;-76
2024/01/09 09:31:57;;;;;;;10.60;5.17;;;-4.70;81.20;;;;;;4928662;29;20178;-78
2024/01/09 09:34:29;;;;;;;10.75;7.45;;;-4.60;79.50;;;;;;4948027;29;20443;-79
2024/01/09 09:36:55;;;;;;;13.23;5.83;;;-4.50;79.80;;;;;;4930947;29;20483;-77
2024/01/09 09:39:21;;;;;;;12.60;6.37;;;-4.50;80.00;;;;;;4926691;29;20520;-79
2024/01/09 09:41:59;;;;;;;12.27;6.63;;;-4.50;79.60;;;;;;4949842;29;20425;-80
2024/01/09 09:44:26;;;;;;;14.17;6.87;;;-4.50;79.10;;;;;;4936267;29;20209;-78
2024/01/09 09:46:57;;;;;;;7.90;4.70;;;-4.50;78.80;;;;;;4924915;29;20441;-80
2024/01/09 09:49:25;;;;;;;10.33;5.50;;;-4.40;78.80;;;;;;4937039;29;20444;-79
2024/01/09 09:51:54;;;;;;;9.93;5.33;;;-4.30;78.60;;;;;;4924880;29;20430;-73
2024/01/09 09:54:22;;;;;;;8.20;4.63;;;-4.30;78.40;;;;;;4957171;29;20412;-72
2024/01/09 09:56:48;;;;;;;9.40;5.27;;;-4.20;78.30;;;;;;4920342;29;20205;-70
2024/01/09 09:59:49;;;;;;;8.60;4.60;;;-4.20;77.90;;;;;;4957981;28;20425;-82
2024/01/09 10:02:26;;;;;;;11.53;6.03;;;-4.00;76.90;;;;;;4944855;29;20430;-79
2024/01/09 10:05:07;;;;;;;12.00;6.17;;;-4.00;75.40;;;;;;4929016;29;20473;-73
2024/01/09 10:07:37;;;;;;;9.55;6.65;;;-3.90;75.30;;;;;;4936886;29;20429;-71
2024/01/09 10:10:09;;;;;;;8.37;6.20;;;-3.80;75.40;;;;;;4960409;28;20486;-79
2024/01/09 10:13:04;;;;;;;9.87;5.13;;;-3.70;75.20;;;;;;4914247;29;20401;-78
2024/01/09 10:45:24;;;;;;;6.70;4.67;;;-3.20;68.90;;;;;;5042471;23;20496;-81
2024/01/09 22:35:53;;;;;;;14.70;7.83;;;-4.70;67.30;;;;;;2754616;23;20810;-82
2024/01/09 22:49:13;;;;;;;13.57;7.43;;;-4.60;68.70;;;;;;5234051;23;20489;-83
2024/01/09 22:54:13;;;;;;;13.67;7.53;;;-4.50;68.60;;;;;;4933014;29;20450;-81
2024/01/09 22:56:48;;;;;;;16.90;8.33;;;-4.70;68.60;;;;;;4907675;29;20482;-82
2024/01/09 22:59:43;;;;;;;16.70;6.93;;;-4.70;69.20;;;;;;4936040;29;20171;-85
2024/01/09 23:02:33;;;;;;;16.37;8.37;;;-4.70;70.60;;;;;;4894332;29;20503;-81
2024/01/09 23:13:30;;;;;;;14.10;7.80;;;-4.70;71.20;;;;;;4200549;23;20573;-81
2024/01/09 23:15:56;;;;;;;21.70;10.03;;;-4.60;71.40;;;;;;5052589;24;20486;-81
2024/01/09 23:18:39;;;;;;;18.63;9.50;;;-4.60;71.70;;;;;;4977438;28;20468;-81
2024/01/09 23:21:13;;;;;;;16.63;9.80;;;-4.50;72.10;;;;;;4935944;28;20252;-82
2024/01/09 23:26:37;;;;;;;21.60;9.53;;;-4.50;72.00;;;;;;4658513;23;15086276;-81
2024/01/09 23:29:05;;;;;;;17.50;9.03;;;-4.60;72.20;;;;;;4912069;29;20490;-81
2024/01/09 23:31:45;;;;;;;19.27;9.10;;;-4.60;72.20;;;;;;4895449;29;20426;-82
2024/01/09 23:34:20;;;;;;;14.53;8.20;;;-4.50;71.90;;;;;;4921687;29;20433;-80
2024/01/09 23:36:47;;;;;;;23.13;8.07;;;-4.60;71.50;;;;;;4874163;29;20462;-79
2024/01/09 23:39:14;;;;;;;11.37;6.70;;;-4.60;71.40;;;;;;4903728;29;20494;-82
2024/01/09 23:41:59;;;;;;;19.43;8.47;;;-4.70;71.20;;;;;;4906108;29;20420;-80
2024/01/09 23:44:26;;;;;;;17.30;9.00;;;-4.70;71.30;;;;;;4908010;29;20467;-80
2024/01/09 23:46:58;;;;;;;14.07;7.80;;;-4.70;71.80;;;;;;4920317;29;20421;-80
2024/01/09 23:49:27;;;;;;;11.30;7.40;;;-4.60;71.00;;;;;;4873981;29;20423;-81
2024/01/09 23:51:55;;;;;;;13.27;8.80;;;-4.60;70.60;;;;;;4888616;29;20424;-79
2024/01/09 23:54:23;;;;;;;12.67;6.90;;;-4.70;71.20;;;;;;4915657;29;20411;-80
2024/01/09 23:56:53;;;;;;;13.60;7.33;;;-4.70;70.60;;;;;;4888723;29;20496;-80
2024/01/09 23:59:46;;;;;;;12.03;8.03;;;-4.80;70.80;;;;;;4903237;29;20426;-81
